createdAt,value
2022-12-23T00:00:03.034Z,90.7
2022-12-23T00:03:03.598Z,90.7
2022-12-23T00:06:02.966Z,90.7
2022-12-23T00:09:02.997Z,90.7
2022-12-23T00:12:03.042Z,90.7
2022-12-23T00:15:03.023Z,90.7
2022-12-23T00:18:03.006Z,90.7
2022-12-23T00:21:11.341Z,90.7
2022-12-23T00:24:02.975Z,90.8
2022-12-23T00:27:03.001Z,90.8
2022-12-23T00:30:03.078Z,90.8
2022-12-23T00:33:02.924Z,90.8
2022-12-23T00:36:03.085Z,90.8
2022-12-23T00:39:02.973Z,90.8
2022-12-23T00:42:03.013Z,90.8
2022-12-23T00:45:02.938Z,90.9
2022-12-23T00:48:03.004Z,90.9
2022-12-23T00:51:02.948Z,90.9
2022-12-23T00:54:03.019Z,90.9
2022-12-23T00:57:02.975Z,90.9
2022-12-23T01:00:03.025Z,90.9
2022-12-23T01:03:03.406Z,90.9
2022-12-23T01:06:03.039Z,90.9
2022-12-23T01:09:02.995Z,90.9
2022-12-23T01:12:02.969Z,90.9
2022-12-23T01:15:02.977Z,90.9
2022-12-23T01:18:02.968Z,90.9
2022-12-23T01:21:02.970Z,90.9
2022-12-23T01:24:02.957Z,90.9
2022-12-23T01:27:03.026Z,90.9
2022-12-23T01:30:02.993Z,90.9
2022-12-23T01:33:03.043Z,90.9
2022-12-23T01:36:02.975Z,90.9
2022-12-23T01:39:03.004Z,94.6
2022-12-23T01:42:02.978Z,94.6
2022-12-23T01:45:03.165Z,94.6
2022-12-23T01:48:03.005Z,94.6
2022-12-23T01:51:02.964Z,94.6
2022-12-23T01:54:03.012Z,95.2
2022-12-23T01:57:02.972Z,95.2
2022-12-23T02:00:02.969Z,95.2
2022-12-23T02:03:03.316Z,95.2
2022-12-23T02:06:03.020Z,95.2
2022-12-23T02:09:02.997Z,95.2
2022-12-23T02:12:02.995Z,95.2
2022-12-23T02:15:03.062Z,95.2
2022-12-23T02:18:03.019Z,95.2
2022-12-23T02:21:02.959Z,95.2
2022-12-23T02:24:03.002Z,95.6
2022-12-23T02:27:02.995Z,95.6
2022-12-23T02:30:03.015Z,95.6
2022-12-23T02:33:02.946Z,95.5
2022-12-23T02:36:02.999Z,95.5
2022-12-23T02:39:02.982Z,95.5
2022-12-23T02:42:02.974Z,95.5
2022-12-23T02:45:03.001Z,95.5
2022-12-23T02:48:03.043Z,95.5
2022-12-23T02:51:02.992Z,95.5
2022-12-23T02:54:02.968Z,95.5
2022-12-23T02:57:02.982Z,95.5
2022-12-23T03:00:03.002Z,95.5
2022-12-23T03:03:03.491Z,95.5
2022-12-23T03:06:02.975Z,95.5
2022-12-23T03:09:02.991Z,95.5
2022-12-23T03:12:03.081Z,95.5
2022-12-23T03:15:03.060Z,95.7
2022-12-23T03:18:03.087Z,95.7
2022-12-23T03:21:03.044Z,95.7
2022-12-23T03:24:02.980Z,95.7
2022-12-23T03:27:03.037Z,95.7
2022-12-23T03:30:02.985Z,95.7
2022-12-23T03:33:02.966Z,95.7
2022-12-23T03:36:02.981Z,95.7
2022-12-23T03:39:02.989Z,95.7
2022-12-23T03:42:02.950Z,95.7
2022-12-23T03:45:43.476Z,95.7
2022-12-23T03:48:02.973Z,95.7
2022-12-23T03:51:03.006Z,95.7
2022-12-23T03:54:03.012Z,95.7
2022-12-23T03:57:03.007Z,95.7
2022-12-23T04:00:03.003Z,95.7
2022-12-23T04:03:03.388Z,95.7
2022-12-23T04:06:02.971Z,95.7
2022-12-23T04:09:02.932Z,95.7
2022-12-23T04:12:02.987Z,95.7
2022-12-23T04:15:06.136Z,95.7
2022-12-23T04:18:03.008Z,95.6
2022-12-23T04:21:02.979Z,95.6
2022-12-23T04:24:03.016Z,95.6
2022-12-23T04:27:02.951Z,95.6
2022-12-23T04:30:03.051Z,95.6
2022-12-23T04:33:03.020Z,95.6
2022-12-23T04:36:03.054Z,95.6
2022-12-23T04:39:03.015Z,95.6
2022-12-23T04:42:02.938Z,95.6
2022-12-23T04:45:03.143Z,95.6
2022-12-23T04:48:03.010Z,95.6
2022-12-23T04:51:03.099Z,95.6
2022-12-23T04:54:02.999Z,95.6
2022-12-23T04:57:03.008Z,95.6
2022-12-23T05:00:03.042Z,95.6
2022-12-23T05:03:03.419Z,95.6
2022-12-23T05:06:02.985Z,95.6
2022-12-23T05:09:03.015Z,95.6
2022-12-23T05:12:02.979Z,95.5
2022-12-23T05:15:03.015Z,95.5
2022-12-23T05:18:03.003Z,95.5
2022-12-23T05:21:02.992Z,95.5
2022-12-23T05:24:03.082Z,95.5
2022-12-23T05:27:03.218Z,95.5
2022-12-23T05:30:02.998Z,95.5
2022-12-23T05:33:03.278Z,95.5
2022-12-23T05:36:02.942Z,95.5
2022-12-23T05:39:02.994Z,95.3
2022-12-23T05:42:02.998Z,95.3
2022-12-23T05:45:02.972Z,95.3
2022-12-23T05:48:03.009Z,95.3
2022-12-23T05:51:02.960Z,95.3
2022-12-23T05:54:03.018Z,95.3
2022-12-23T05:57:02.974Z,95.3
2022-12-23T06:00:03.007Z,95.4
2022-12-23T06:03:03.667Z,95.4
2022-12-23T06:06:03.010Z,95.4
2022-12-23T06:09:03.067Z,95.4
2022-12-23T06:12:02.976Z,95.4
2022-12-23T06:15:02.974Z,95.4
2022-12-23T06:18:03.024Z,95.4
2022-12-23T06:21:02.965Z,95.4
2022-12-23T06:24:02.989Z,95.4
2022-12-23T06:27:02.971Z,95.4
2022-12-23T06:30:03.130Z,95.4
2022-12-23T06:33:03.005Z,95.4
2022-12-23T06:36:02.981Z,95.4
2022-12-23T06:39:02.947Z,95.4
2022-12-23T06:42:02.969Z,95.4
2022-12-23T06:45:03.021Z,95.4
2022-12-23T06:48:02.989Z,95.4
2022-12-23T06:51:03.013Z,95.4
2022-12-23T06:54:03.004Z,95.3
2022-12-23T06:57:02.971Z,95.3
2022-12-23T07:00:03.105Z,95.3
2022-12-23T07:03:03.477Z,95.3
2022-12-23T07:06:02.990Z,95.1
2022-12-23T07:09:02.998Z,95.1
2022-12-23T07:12:03.039Z,95.1
2022-12-23T07:15:03.036Z,95
2022-12-23T07:18:03.017Z,95
2022-12-23T07:21:03.024Z,95
2022-12-23T07:24:02.976Z,95
2022-12-23T07:27:02.995Z,95
2022-12-23T07:30:03.092Z,95
2022-12-23T07:33:03.028Z,94.9
2022-12-23T07:36:03.079Z,94.9
2022-12-23T07:39:03.059Z,94.9
2022-12-23T07:42:47.817Z,94.9
2022-12-23T07:45:03.061Z,94.9
2022-12-23T07:48:03.039Z,94.9
2022-12-23T07:51:03.042Z,94.9
2022-12-23T07:54:03.018Z,94.9
2022-12-23T07:57:03.150Z,94.9
2022-12-23T08:03:03.478Z,94.6
2022-12-23T08:06:03.069Z,94.7
2022-12-23T08:09:03.057Z,94.7
2022-12-23T08:12:03.089Z,94.7
2022-12-23T08:15:03.048Z,94.7
2022-12-23T08:18:03.057Z,94.7
2022-12-23T08:21:03.023Z,94.7
2022-12-23T08:24:02.986Z,94.6
2022-12-23T08:27:03.066Z,94.6
2022-12-23T08:30:03.057Z,94.6
2022-12-23T08:33:03.000Z,94.6
2022-12-23T08:36:03.076Z,94.6
2022-12-23T08:39:02.975Z,94.6
2022-12-23T08:42:03.064Z,94.6
2022-12-23T08:45:03.027Z,94.6
2022-12-23T08:48:03.056Z,94.6
2022-12-23T08:51:03.017Z,94.6
2022-12-23T08:54:04.075Z,94.6
2022-12-23T08:57:03.070Z,94.6
2022-12-23T09:00:03.016Z,94.6
2022-12-23T09:03:03.514Z,94.6
2022-12-23T09:06:03.065Z,94.6
2022-12-23T09:09:03.020Z,94.6
2022-12-23T09:12:03.133Z,94.6
2022-12-23T09:15:03.045Z,94.6
2022-12-23T09:18:03.029Z,94.6
2022-12-23T09:21:03.008Z,94.6
2022-12-23T09:24:03.163Z,94.8
2022-12-23T09:27:03.051Z,94.8
2022-12-23T09:30:03.076Z,94.8
2022-12-23T09:33:03.028Z,94.8
2022-12-23T09:36:03.104Z,94.8
2022-12-23T09:39:03.053Z,94.8
2022-12-23T09:42:03.013Z,94.8
2022-12-23T09:45:03.033Z,94.8
2022-12-23T09:48:03.067Z,94.8
2022-12-23T09:51:03.187Z,94.7
2022-12-23T09:54:03.072Z,94.7
2022-12-23T09:57:03.028Z,94.7
2022-12-23T10:00:03.040Z,94.7
2022-12-23T10:03:03.865Z,94.7
2022-12-23T10:06:03.043Z,94.7
2022-12-23T10:09:03.039Z,94.7
2022-12-23T10:12:03.005Z,94.7
2022-12-23T10:15:03.008Z,94.7
2022-12-23T10:18:03.010Z,94.7
2022-12-23T10:21:03.034Z,94.7
2022-12-23T10:24:03.107Z,94.7
2022-12-23T10:27:03.041Z,94.7
2022-12-23T10:30:42.330Z,94.7
2022-12-23T10:33:03.013Z,94.7
2022-12-23T10:36:03.275Z,94.7
2022-12-23T10:39:03.005Z,94.7
2022-12-23T10:42:03.060Z,94.7
2022-12-23T10:45:03.063Z,94.7
2022-12-23T10:48:04.225Z,94.7
2022-12-23T10:51:03.040Z,94.7
2022-12-23T10:54:03.096Z,94.7
2022-12-23T10:57:03.061Z,94.7
2022-12-23T11:00:03.093Z,94.7
2022-12-23T11:03:03.398Z,94.5
2022-12-23T11:06:03.042Z,94.5
2022-12-23T11:09:03.028Z,94.5
2022-12-23T11:12:03.021Z,94.5
2022-12-23T11:15:03.084Z,94.5
2022-12-23T11:18:03.125Z,94.5
2022-12-23T11:21:02.992Z,94.5
2022-12-23T11:24:03.005Z,94.5
2022-12-23T11:27:03.003Z,94.5
2022-12-23T11:30:03.107Z,94.5
2022-12-23T11:33:03.028Z,94.1
2022-12-23T11:36:03.019Z,94.1
2022-12-23T11:39:02.994Z,94.1
2022-12-23T11:42:03.028Z,94.1
2022-12-23T11:45:03.066Z,94.1
2022-12-23T11:48:03.035Z,94.1
2022-12-23T11:51:03.062Z,94
2022-12-23T11:54:03.369Z,94
2022-12-23T11:57:03.314Z,94
2022-12-23T12:00:03.223Z,94
2022-12-23T12:03:03.140Z,94
2022-12-23T12:06:03.102Z,94
2022-12-23T12:09:03.062Z,94
2022-12-23T12:12:02.997Z,94
2022-12-23T12:15:03.063Z,94
2022-12-23T12:18:03.055Z,94
2022-12-23T12:21:03.042Z,94
2022-12-23T12:24:21.439Z,94
2022-12-23T12:27:03.062Z,93.9
2022-12-23T12:30:11.174Z,93.9
2022-12-23T12:33:03.166Z,93.8
2022-12-23T12:36:08.090Z,93.8
2022-12-23T12:39:03.016Z,93.8
2022-12-23T12:42:08.382Z,93.8
2022-12-23T12:45:03.081Z,93.8
2022-12-23T12:48:20.033Z,93.8
2022-12-23T12:51:03.007Z,93.8
2022-12-23T12:54:08.630Z,93.8
2022-12-23T12:57:03.009Z,93.8
2022-12-23T13:00:09.427Z,93.8
2022-12-23T13:03:03.318Z,93.8
2022-12-23T13:06:03.194Z,93.8
2022-12-23T13:09:03.026Z,93.8
2022-12-23T13:12:03.045Z,93.8
2022-12-23T13:15:03.063Z,93.8
2022-12-23T13:18:06.321Z,93.8
2022-12-23T13:21:03.075Z,93.8
2022-12-23T13:24:06.751Z,93.8
2022-12-23T13:27:03.038Z,93.8
2022-12-23T13:30:03.145Z,93.8
2022-12-23T13:33:03.014Z,93.8
2022-12-23T13:36:08.933Z,93.8
2022-12-23T13:39:03.081Z,93.8
2022-12-23T13:42:08.512Z,93.8
2022-12-23T13:45:03.062Z,93.8
2022-12-23T13:48:07.806Z,93.8
2022-12-23T13:51:03.120Z,93.8
2022-12-23T13:54:07.652Z,93.8
2022-12-23T13:57:03.009Z,93.8
2022-12-23T14:00:08.777Z,93.8
2022-12-23T14:03:03.403Z,93.8
2022-12-23T14:06:03.064Z,93.8
2022-12-23T14:09:03.020Z,93.8
2022-12-23T14:12:07.015Z,93.6
2022-12-23T14:15:03.029Z,93.5
2022-12-23T14:18:07.280Z,93.5
2022-12-23T14:21:03.017Z,93.5
2022-12-23T14:24:07.087Z,93.5
2022-12-23T14:27:03.015Z,93.5
2022-12-23T14:30:09.070Z,93.5
2022-12-23T14:33:03.043Z,93.5
2022-12-23T14:36:03.111Z,93.5
2022-12-23T14:39:03.019Z,93.5
2022-12-23T14:42:14.783Z,93.5
2022-12-23T14:45:03.070Z,93.5
2022-12-23T14:48:03.014Z,93.5
2022-12-23T14:51:03.083Z,93.1
2022-12-23T14:54:03.067Z,93.1
2022-12-23T14:57:03.206Z,93.1
2022-12-23T15:00:03.223Z,93.1
2022-12-23T15:03:03.349Z,93.1
2022-12-23T15:06:03.142Z,93.1
2022-12-23T15:09:03.144Z,93.1
2022-12-23T15:12:03.005Z,92.9
2022-12-23T15:15:03.019Z,92.9
2022-12-23T15:18:03.154Z,92.9
2022-12-23T15:21:03.009Z,92.9
2022-12-23T15:24:03.020Z,92.9
2022-12-23T15:27:31.148Z,92.9
2022-12-23T15:30:03.207Z,92.9
2022-12-23T15:33:03.021Z,92.9
2022-12-23T15:36:03.132Z,92.9
2022-12-23T15:39:03.029Z,92.9
2022-12-23T15:42:02.973Z,92.9
2022-12-23T15:45:03.002Z,92.9
2022-12-23T15:48:03.042Z,92.9
2022-12-23T15:51:03.021Z,92.9
2022-12-23T15:54:02.980Z,92.9
2022-12-23T15:57:03.016Z,92.8
2022-12-23T16:00:03.373Z,92.8
2022-12-23T16:03:13.722Z,92.8
2022-12-23T16:06:03.045Z,92.9
2022-12-23T16:09:02.988Z,92.9
2022-12-23T16:12:03.156Z,92.7
2022-12-23T16:15:03.107Z,92.7
2022-12-23T16:18:03.023Z,92.7
2022-12-23T16:21:03.019Z,92.7
2022-12-23T16:24:03.100Z,92.8
2022-12-23T16:27:02.976Z,92.8
2022-12-23T16:30:03.140Z,92.8
2022-12-23T16:33:03.012Z,92.8
2022-12-23T16:36:03.140Z,92.8
2022-12-23T16:39:02.961Z,92.8
2022-12-23T16:42:02.980Z,92.8
2022-12-23T16:45:03.013Z,92.8
2022-12-23T16:48:03.279Z,92.8
2022-12-23T16:51:03.055Z,92.8
2022-12-23T16:54:03.064Z,92.8
2022-12-23T16:57:03.094Z,92.8
2022-12-23T17:00:03.034Z,92.8
2022-12-23T17:03:03.228Z,93.4
2022-12-23T17:06:02.997Z,93.4
2022-12-23T17:09:03.038Z,93.4
2022-12-23T17:12:03.011Z,93.4
2022-12-23T17:15:02.965Z,93.4
2022-12-23T17:18:03.033Z,93.4
2022-12-23T17:21:03.025Z,93.4
2022-12-23T17:24:03.027Z,93.4
2022-12-23T17:27:03.049Z,93.4
2022-12-23T17:30:03.068Z,93.4
2022-12-23T17:33:03.053Z,93.4
2022-12-23T17:36:03.202Z,93.4
2022-12-23T17:39:03.016Z,93.4
2022-12-23T17:42:03.037Z,93.4
2022-12-23T17:45:03.039Z,93.7
2022-12-23T17:48:02.972Z,93.7
2022-12-23T17:51:03.030Z,93.7
2022-12-23T17:54:03.032Z,93.7
2022-12-23T17:57:02.988Z,93.7
2022-12-23T18:00:03.061Z,93.7
2022-12-23T18:03:03.056Z,93.7
2022-12-23T18:06:04.828Z,93.8
2022-12-23T18:09:02.986Z,93.7
2022-12-23T18:12:03.018Z,93.7
2022-12-23T18:15:03.009Z,93.7
2022-12-23T18:18:03.006Z,93.7
2022-12-23T18:21:03.043Z,93.7
2022-12-23T18:24:03.025Z,93.7
2022-12-23T18:27:02.963Z,93.7
2022-12-23T18:30:03.100Z,93.7
2022-12-23T18:33:02.987Z,93.7
2022-12-23T18:36:03.417Z,93.7
2022-12-23T18:39:03.104Z,93.7
2022-12-23T18:42:03.045Z,93.7
2022-12-23T18:45:02.997Z,93.7
2022-12-23T18:48:02.979Z,93.7
2022-12-23T18:51:03.098Z,93.7
2022-12-23T18:54:02.981Z,93.6
2022-12-23T18:57:03.050Z,93.6
2022-12-23T19:00:03.041Z,93.6
2022-12-23T19:03:03.247Z,93.5
2022-12-23T19:06:02.951Z,93.5
2022-12-23T19:09:03.164Z,93.5
2022-12-23T19:12:03.004Z,93.5
2022-12-23T19:15:03.074Z,93.5
2022-12-23T19:18:03.036Z,93.5
2022-12-23T19:21:02.991Z,93.5
2022-12-23T19:24:03.031Z,93.5
2022-12-23T19:27:02.973Z,93.5
2022-12-23T19:30:03.092Z,93.5
2022-12-23T19:33:02.992Z,93.5
2022-12-23T19:36:03.150Z,93.5
2022-12-23T19:39:02.982Z,93.5
2022-12-23T19:42:03.027Z,93.5
2022-12-23T19:45:03.048Z,93.5
2022-12-23T19:48:03.109Z,93.5
2022-12-23T19:51:02.999Z,93.5
2022-12-23T19:54:03.054Z,93.5
2022-12-23T19:57:03.004Z,93.6
2022-12-23T20:00:02.977Z,93.6
2022-12-23T20:03:03.125Z,93.6
2022-12-23T20:06:03.030Z,93.6
2022-12-23T20:09:03.724Z,93.6
2022-12-23T20:12:02.983Z,93.6
2022-12-23T20:15:03.190Z,93.6
2022-12-23T20:18:02.979Z,93.6
2022-12-23T20:21:03.013Z,93.6
2022-12-23T20:24:03.047Z,93.6
2022-12-23T20:27:06.310Z,93.6
2022-12-23T20:30:03.021Z,93.6
2022-12-23T20:33:03.002Z,93.6
2022-12-23T20:36:03.209Z,93.6
2022-12-23T20:39:03.015Z,93.6
2022-12-23T20:42:03.026Z,93.6
2022-12-23T20:45:03.157Z,93.6
2022-12-23T20:48:03.057Z,93.6
2022-12-23T20:51:03.008Z,93.6
2022-12-23T20:54:02.949Z,93.8
2022-12-23T20:57:02.976Z,93.8
2022-12-23T21:00:03.126Z,93.8
2022-12-23T21:03:12.615Z,93.8
2022-12-23T21:06:02.936Z,93.8
2022-12-23T21:09:02.985Z,93.8
2022-12-23T21:12:03.050Z,93.8
2022-12-23T21:15:03.063Z,93.8
2022-12-23T21:18:03.007Z,93.8
2022-12-23T21:21:02.992Z,93.7
2022-12-23T21:24:02.997Z,93.7
2022-12-23T21:27:03.001Z,93.7
2022-12-23T21:30:03.195Z,93.7
2022-12-23T21:33:03.017Z,93.7
2022-12-23T21:36:03.190Z,93.7
2022-12-23T21:39:02.965Z,93.7
2022-12-23T21:42:03.007Z,93.8
2022-12-23T21:45:03.303Z,93.8
2022-12-23T21:48:03.012Z,93.8
2022-12-23T21:51:03.030Z,93.8
2022-12-23T21:54:03.107Z,93.8
2022-12-23T21:57:03.019Z,93.8
2022-12-23T22:00:03.072Z,93.8
2022-12-23T22:03:03.811Z,94
2022-12-23T22:06:12.109Z,94
2022-12-23T22:09:03.013Z,94
2022-12-23T22:12:02.966Z,94
2022-12-23T22:15:12.068Z,94
2022-12-23T22:18:02.997Z,94
2022-12-23T22:21:03.086Z,94
2022-12-23T22:24:02.997Z,94.1
2022-12-23T22:27:03.049Z,94.1
2022-12-23T22:30:03.043Z,94.1
2022-12-23T22:33:02.965Z,94.1
2022-12-23T22:36:03.184Z,94.1
2022-12-23T22:39:03.020Z,94.1
2022-12-23T22:42:03.005Z,94
2022-12-23T22:45:03.099Z,94
2022-12-23T22:48:03.608Z,94
2022-12-23T22:51:03.000Z,94
2022-12-23T22:54:02.973Z,94
2022-12-23T22:57:02.944Z,94
2022-12-23T23:00:14.495Z,94
2022-12-23T23:03:02.975Z,94
2022-12-23T23:06:03.310Z,94
2022-12-23T23:09:02.986Z,94
2022-12-23T23:12:03.067Z,94
2022-12-23T23:15:03.030Z,94
2022-12-23T23:18:02.943Z,94
2022-12-23T23:21:02.970Z,94
2022-12-23T23:24:03.036Z,93.9
2022-12-23T23:27:02.969Z,93.9
2022-12-23T23:30:03.066Z,93.9
2022-12-23T23:33:03.080Z,93.9
2022-12-23T23:36:03.316Z,93.9
2022-12-23T23:39:03.002Z,94
2022-12-23T23:42:03.020Z,94
2022-12-23T23:45:03.047Z,94
2022-12-23T23:48:02.995Z,94
2022-12-23T23:51:02.978Z,94
2022-12-23T23:54:03.003Z,94
2022-12-23T23:57:03.065Z,94
